sensor_id;sensor_type;location;lat;lon;timestamp;P1;durP1;ratioP1;P2;durP2;ratioP2
46701;SDS011;33449;50.712;7.124;2023-04-08T00:00:55;31.17;;;13.32;;
46701;SDS011;33449;50.712;7.124;2023-04-08T00:03:22;33.05;;;15.43;;
46701;SDS011;33449;50.712;7.124;2023-04-08T00:05:50;31.60;;;13.48;;
46701;SDS011;33449;50.712;7.124;2023-04-08T00:08:17;37.50;;;14.63;;
46701;SDS011;33449;50.712;7.124;2023-04-08T00:10:45;31.20;;;14.32;;
46701;SDS011;33449;50.712;7.124;2023-04-08T00:13:13;26.90;;;13.50;;
46701;SDS011;33449;50.712;7.124;2023-04-08T00:15:40;38.88;;;14.95;;
46701;SDS011;33449;50.712;7.124;2023-04-08T00:18:09;27.33;;;13.80;;
46701;SDS011;33449;50.712;7.124;2023-04-08T00:20:37;30.48;;;13.80;;
46701;SDS011;33449;50.712;7.124;2023-04-08T00:23:04;37.22;;;14.68;;
46701;SDS011;33449;50.712;7.124;2023-04-08T00:25:39;28.23;;;14.77;;
46701;SDS011;33449;50.712;7.124;2023-04-08T00:28:14;28.38;;;13.57;;
46701;SDS011;33449;50.712;7.124;2023-04-08T00:30:41;34.15;;;14.38;;
46701;SDS011;33449;50.712;7.124;2023-04-08T00:33:09;27.75;;;13.98;;
46701;SDS011;33449;50.712;7.124;2023-04-08T00:35:36;28.35;;;12.82;;
46701;SDS011;33449;50.712;7.124;2023-04-08T00:38:04;35.47;;;13.85;;
46701;SDS011;33449;50.712;7.124;2023-04-08T00:40:47;28.00;;;13.52;;
46701;SDS011;33449;50.712;7.124;2023-04-08T00:43:16;30.15;;;13.32;;
46701;SDS011;33449;50.712;7.124;2023-04-08T00:45:46;34.37;;;13.80;;
46701;SDS011;33449;50.712;7.124;2023-04-08T00:48:13;30.60;;;13.32;;
46701;SDS011;33449;50.712;7.124;2023-04-08T00:50:42;31.17;;;14.18;;
46701;SDS011;33449;50.712;7.124;2023-04-08T00:53:09;32.78;;;12.80;;
46701;SDS011;33449;50.712;7.124;2023-04-08T00:55:38;33.67;;;14.63;;
46701;SDS011;33449;50.712;7.124;2023-04-08T00:58:06;26.23;;;15.15;;
46701;SDS011;33449;50.712;7.124;2023-04-08T01:00:34;24.73;;;13.23;;
46701;SDS011;33449;50.712;7.124;2023-04-08T01:08:15;28.25;;;12.65;;
46701;SDS011;33449;50.712;7.124;2023-04-08T01:10:43;27.85;;;12.63;;
46701;SDS011;33449;50.712;7.124;2023-04-08T01:13:14;33.85;;;13.88;;
46701;SDS011;33449;50.712;7.124;2023-04-08T01:15:43;29.30;;;14.93;;
46701;SDS011;33449;50.712;7.124;2023-04-08T01:18:13;36.25;;;14.73;;
46701;SDS011;33449;50.712;7.124;2023-04-08T01:25:51;33.35;;;14.50;;
46701;SDS011;33449;50.712;7.124;2023-04-08T01:28:33;32.85;;;15.40;;
46701;SDS011;33449;50.712;7.124;2023-04-08T01:31:09;30.77;;;15.00;;
46701;SDS011;33449;50.712;7.124;2023-04-08T01:33:51;29.63;;;15.25;;
46701;SDS011;33449;50.712;7.124;2023-04-08T01:36:26;44.60;;;16.70;;
46701;SDS011;33449;50.712;7.124;2023-04-08T01:39:02;37.17;;;17.00;;
46701;SDS011;33449;50.712;7.124;2023-04-08T01:41:39;35.92;;;15.95;;
46701;SDS011;33449;50.712;7.124;2023-04-08T01:44:20;34.05;;;16.13;;
46701;SDS011;33449;50.712;7.124;2023-04-08T01:49:38;41.03;;;19.02;;
46701;SDS011;33449;50.712;7.124;2023-04-08T01:52:08;38.88;;;16.67;;
46701;SDS011;33449;50.712;7.124;2023-04-08T01:54:49;36.65;;;16.63;;
46701;SDS011;33449;50.712;7.124;2023-04-08T01:57:23;36.90;;;17.90;;
46701;SDS011;33449;50.712;7.124;2023-04-08T02:00:05;35.58;;;17.00;;
46701;SDS011;33449;50.712;7.124;2023-04-08T02:05:35;46.55;;;18.55;;
46701;SDS011;33449;50.712;7.124;2023-04-08T02:08:24;40.95;;;19.42;;
46701;SDS011;33449;50.712;7.124;2023-04-08T02:10:58;38.13;;;18.88;;
46701;SDS011;33449;50.712;7.124;2023-04-08T02:16:14;51.45;;;20.83;;
46701;SDS011;33449;50.712;7.124;2023-04-08T02:19:05;46.53;;;22.10;;
46701;SDS011;33449;50.712;7.124;2023-04-08T02:21:48;51.50;;;21.85;;
46701;SDS011;33449;50.712;7.124;2023-04-08T02:24:32;49.72;;;21.60;;
46701;SDS011;33449;50.712;7.124;2023-04-08T02:27:14;54.90;;;21.48;;
46701;SDS011;33449;50.712;7.124;2023-04-08T02:29:56;51.80;;;22.88;;
46701;SDS011;33449;50.712;7.124;2023-04-08T02:32:40;51.25;;;22.60;;
46701;SDS011;33449;50.712;7.124;2023-04-08T02:35:24;49.22;;;23.48;;
46701;SDS011;33449;50.712;7.124;2023-04-08T02:52:15;55.15;;;25.38;;
46701;SDS011;33449;50.712;7.124;2023-04-08T02:57:39;60.17;;;26.85;;
46701;SDS011;33449;50.712;7.124;2023-04-08T03:08:28;57.42;;;26.27;;
46701;SDS011;33449;50.712;7.124;2023-04-08T03:11:12;64.43;;;28.50;;
46701;SDS011;33449;50.712;7.124;2023-04-08T03:13:53;61.90;;;28.50;;
46701;SDS011;33449;50.712;7.124;2023-04-08T03:16:34;60.85;;;28.30;;
46701;SDS011;33449;50.712;7.124;2023-04-08T03:19:16;67.90;;;28.60;;
46701;SDS011;33449;50.712;7.124;2023-04-08T03:21:57;65.95;;;28.58;;
46701;SDS011;33449;50.712;7.124;2023-04-08T03:24:41;58.17;;;26.92;;
46701;SDS011;33449;50.712;7.124;2023-04-08T03:27:25;60.08;;;26.35;;
46701;SDS011;33449;50.712;7.124;2023-04-08T03:30:06;66.53;;;27.23;;
46701;SDS011;33449;50.712;7.124;2023-04-08T03:32:41;60.45;;;29.00;;
46701;SDS011;33449;50.712;7.124;2023-04-08T03:35:11;67.75;;;28.02;;
46701;SDS011;33449;50.712;7.124;2023-04-08T03:37:40;63.22;;;28.45;;
46701;SDS011;33449;50.712;7.124;2023-04-08T03:40:21;60.63;;;28.77;;
46701;SDS011;33449;50.712;7.124;2023-04-08T03:48:14;71.65;;;29.58;;
46701;SDS011;33449;50.712;7.124;2023-04-08T03:50:49;69.45;;;28.35;;
46701;SDS011;33449;50.712;7.124;2023-04-08T03:53:30;63.00;;;27.35;;
46701;SDS011;33449;50.712;7.124;2023-04-08T03:55:59;60.45;;;27.73;;
46701;SDS011;33449;50.712;7.124;2023-04-08T03:59:11;62.88;;;26.27;;
46701;SDS011;33449;50.712;7.124;2023-04-08T04:01:52;62.50;;;29.25;;
46701;SDS011;33449;50.712;7.124;2023-04-08T04:04:19;61.22;;;27.67;;
46701;SDS011;33449;50.712;7.124;2023-04-08T04:07:00;62.47;;;28.73;;
46701;SDS011;33449;50.712;7.124;2023-04-08T04:09:27;62.97;;;26.90;;
46701;SDS011;33449;50.712;7.124;2023-04-08T04:11:57;63.58;;;27.30;;
46701;SDS011;33449;50.712;7.124;2023-04-08T04:14:26;79.10;;;32.65;;
46701;SDS011;33449;50.712;7.124;2023-04-08T04:16:57;65.55;;;28.30;;
46701;SDS011;33449;50.712;7.124;2023-04-08T04:19:28;78.22;;;31.63;;
46701;SDS011;33449;50.712;7.124;2023-04-08T04:21:57;62.70;;;28.33;;
46701;SDS011;33449;50.712;7.124;2023-04-08T04:24:26;65.53;;;29.15;;
46701;SDS011;33449;50.712;7.124;2023-04-08T04:26:55;65.40;;;28.98;;
46701;SDS011;33449;50.712;7.124;2023-04-08T04:29:23;68.25;;;28.88;;
46701;SDS011;33449;50.712;7.124;2023-04-08T04:31:54;66.35;;;28.67;;
46701;SDS011;33449;50.712;7.124;2023-04-08T04:34:21;65.53;;;28.95;;
46701;SDS011;33449;50.712;7.124;2023-04-08T04:36:52;63.88;;;28.95;;
46701;SDS011;33449;50.712;7.124;2023-04-08T04:39:21;72.25;;;29.38;;
46701;SDS011;33449;50.712;7.124;2023-04-08T04:41:48;73.03;;;30.25;;
46701;SDS011;33449;50.712;7.124;2023-04-08T04:44:17;69.72;;;30.58;;
46701;SDS011;33449;50.712;7.124;2023-04-08T04:46:47;67.30;;;29.17;;
46701;SDS011;33449;50.712;7.124;2023-04-08T04:49:16;68.30;;;29.88;;
46701;SDS011;33449;50.712;7.124;2023-04-08T04:51:44;71.22;;;31.30;;
46701;SDS011;33449;50.712;7.124;2023-04-08T04:54:11;69.57;;;30.63;;
46701;SDS011;33449;50.712;7.124;2023-04-08T04:56:39;71.20;;;31.83;;
46701;SDS011;33449;50.712;7.124;2023-04-08T04:59:08;72.53;;;32.95;;
46701;SDS011;33449;50.712;7.124;2023-04-08T05:04:27;77.63;;;30.85;;
46701;SDS011;33449;50.712;7.124;2023-04-08T05:06:57;72.63;;;30.45;;
46701;SDS011;33449;50.712;7.124;2023-04-08T05:09:25;65.97;;;29.20;;
46701;SDS011;33449;50.712;7.124;2023-04-08T05:11:56;66.00;;;32.15;;
46701;SDS011;33449;50.712;7.124;2023-04-08T05:14:28;69.80;;;30.10;;
46701;SDS011;33449;50.712;7.124;2023-04-08T05:16:56;69.90;;;30.83;;
46701;SDS011;33449;50.712;7.124;2023-04-08T05:19:23;72.70;;;30.27;;
46701;SDS011;33449;50.712;7.124;2023-04-08T05:21:51;71.05;;;29.98;;
46701;SDS011;33449;50.712;7.124;2023-04-08T05:24:19;64.35;;;28.27;;
46701;SDS011;33449;50.712;7.124;2023-04-08T05:26:46;64.88;;;30.85;;
46701;SDS011;33449;50.712;7.124;2023-04-08T05:29:17;71.47;;;29.65;;
46701;SDS011;33449;50.712;7.124;2023-04-08T05:31:46;66.65;;;29.92;;
46701;SDS011;33449;50.712;7.124;2023-04-08T05:34:14;66.63;;;30.10;;
46701;SDS011;33449;50.712;7.124;2023-04-08T05:39:11;66.10;;;31.05;;
46701;SDS011;33449;50.712;7.124;2023-04-08T05:41:42;63.72;;;30.52;;
46701;SDS011;33449;50.712;7.124;2023-04-08T05:44:10;70.40;;;30.65;;
46701;SDS011;33449;50.712;7.124;2023-04-08T05:46:37;74.13;;;30.60;;
46701;SDS011;33449;50.712;7.124;2023-04-08T05:49:05;66.00;;;28.25;;
46701;SDS011;33449;50.712;7.124;2023-04-08T05:51:38;77.03;;;31.70;;
46701;SDS011;33449;50.712;7.124;2023-04-08T05:54:06;73.85;;;32.28;;
46701;SDS011;33449;50.712;7.124;2023-04-08T05:56:34;76.45;;;32.65;;
46701;SDS011;33449;50.712;7.124;2023-04-08T05:59:01;80.13;;;32.13;;
46701;SDS011;33449;50.712;7.124;2023-04-08T06:01:29;77.50;;;32.33;;
46701;SDS011;33449;50.712;7.124;2023-04-08T06:03:57;76.57;;;31.58;;
46701;SDS011;33449;50.712;7.124;2023-04-08T06:06:24;70.43;;;32.13;;
46701;SDS011;33449;50.712;7.124;2023-04-08T06:08:52;71.68;;;31.17;;
46701;SDS011;33449;50.712;7.124;2023-04-08T06:11:19;82.53;;;33.17;;
46701;SDS011;33449;50.712;7.124;2023-04-08T06:13:46;74.72;;;32.05;;
46701;SDS011;33449;50.712;7.124;2023-04-08T06:16:14;70.10;;;32.00;;
46701;SDS011;33449;50.712;7.124;2023-04-08T06:18:46;72.72;;;31.55;;
46701;SDS011;33449;50.712;7.124;2023-04-08T06:21:14;72.68;;;30.63;;
46701;SDS011;33449;50.712;7.124;2023-04-08T06:23:42;81.05;;;33.05;;
46701;SDS011;33449;50.712;7.124;2023-04-08T06:26:09;77.63;;;30.42;;
46701;SDS011;33449;50.712;7.124;2023-04-08T06:28:36;77.65;;;31.70;;
46701;SDS011;33449;50.712;7.124;2023-04-08T06:31:03;72.00;;;31.65;;
46701;SDS011;33449;50.712;7.124;2023-04-08T06:33:31;71.78;;;33.97;;
46701;SDS011;33449;50.712;7.124;2023-04-08T06:36:02;67.50;;;29.73;;
46701;SDS011;33449;50.712;7.124;2023-04-08T06:38:29;80.10;;;33.00;;
46701;SDS011;33449;50.712;7.124;2023-04-08T06:41:06;71.38;;;33.28;;
46701;SDS011;33449;50.712;7.124;2023-04-08T06:43:34;76.18;;;32.28;;
46701;SDS011;33449;50.712;7.124;2023-04-08T06:46:04;78.53;;;34.60;;
46701;SDS011;33449;50.712;7.124;2023-04-08T06:48:31;67.88;;;31.55;;
46701;SDS011;33449;50.712;7.124;2023-04-08T06:50:59;71.30;;;32.03;;
46701;SDS011;33449;50.712;7.124;2023-04-08T06:53:27;73.78;;;30.50;;
46701;SDS011;33449;50.712;7.124;2023-04-08T06:55:58;73.38;;;33.90;;
46701;SDS011;33449;50.712;7.124;2023-04-08T06:58:26;67.97;;;32.15;;
46701;SDS011;33449;50.712;7.124;2023-04-08T07:00:53;69.15;;;32.70;;
46701;SDS011;33449;50.712;7.124;2023-04-08T07:03:21;66.82;;;30.02;;
46701;SDS011;33449;50.712;7.124;2023-04-08T07:05:49;66.93;;;31.40;;
46701;SDS011;33449;50.712;7.124;2023-04-08T07:08:16;69.70;;;31.60;;
46701;SDS011;33449;50.712;7.124;2023-04-08T07:10:43;64.28;;;30.08;;
46701;SDS011;33449;50.712;7.124;2023-04-08T07:13:11;59.90;;;27.48;;
46701;SDS011;33449;50.712;7.124;2023-04-08T07:15:38;55.67;;;25.55;;
46701;SDS011;33449;50.712;7.124;2023-04-08T07:18:09;51.97;;;26.48;;
46701;SDS011;33449;50.712;7.124;2023-04-08T07:20:37;58.72;;;27.02;;
46701;SDS011;33449;50.712;7.124;2023-04-08T07:23:04;56.60;;;26.30;;
46701;SDS011;33449;50.712;7.124;2023-04-08T07:25:32;55.15;;;25.95;;
46701;SDS011;33449;50.712;7.124;2023-04-08T07:28:02;56.40;;;26.52;;
46701;SDS011;33449;50.712;7.124;2023-04-08T07:30:29;50.85;;;26.05;;
46701;SDS011;33449;50.712;7.124;2023-04-08T07:32:56;67.97;;;30.15;;
46701;SDS011;33449;50.712;7.124;2023-04-08T07:35:26;64.63;;;28.80;;
46701;SDS011;33449;50.712;7.124;2023-04-08T07:37:54;65.10;;;28.63;;
46701;SDS011;33449;50.712;7.124;2023-04-08T07:40:22;69.38;;;30.92;;
46701;SDS011;33449;50.712;7.124;2023-04-08T07:42:51;67.50;;;29.88;;
46701;SDS011;33449;50.712;7.124;2023-04-08T07:45:19;59.53;;;28.08;;
46701;SDS011;33449;50.712;7.124;2023-04-08T07:47:47;58.08;;;28.95;;
46701;SDS011;33449;50.712;7.124;2023-04-08T07:50:15;53.33;;;27.65;;
46701;SDS011;33449;50.712;7.124;2023-04-08T07:52:42;50.10;;;26.10;;
46701;SDS011;33449;50.712;7.124;2023-04-08T07:55:09;57.83;;;28.65;;
46701;SDS011;33449;50.712;7.124;2023-04-08T07:57:37;56.13;;;28.88;;
46701;SDS011;33449;50.712;7.124;2023-04-08T08:00:05;55.22;;;27.23;;
46701;SDS011;33449;50.712;7.124;2023-04-08T08:02:33;52.40;;;26.88;;
46701;SDS011;33449;50.712;7.124;2023-04-08T08:05:01;52.13;;;26.77;;
46701;SDS011;33449;50.712;7.124;2023-04-08T08:07:29;54.60;;;29.40;;
46701;SDS011;33449;50.712;7.124;2023-04-08T08:09:56;54.97;;;28.25;;
46701;SDS011;33449;50.712;7.124;2023-04-08T08:12:24;52.92;;;27.77;;
46701;SDS011;33449;50.712;7.124;2023-04-08T08:14:51;52.60;;;25.95;;
46701;SDS011;33449;50.712;7.124;2023-04-08T08:17:20;54.90;;;27.90;;
46701;SDS011;33449;50.712;7.124;2023-04-08T08:19:47;47.63;;;24.65;;
46701;SDS011;33449;50.712;7.124;2023-04-08T08:22:15;49.92;;;25.77;;
46701;SDS011;33449;50.712;7.124;2023-04-08T08:24:43;44.83;;;25.30;;
46701;SDS011;33449;50.712;7.124;2023-04-08T08:27:10;48.35;;;27.17;;
46701;SDS011;33449;50.712;7.124;2023-04-08T08:29:37;49.53;;;27.27;;
46701;SDS011;33449;50.712;7.124;2023-04-08T08:32:05;48.70;;;25.48;;
46701;SDS011;33449;50.712;7.124;2023-04-08T08:34:32;49.95;;;24.15;;
46701;SDS011;33449;50.712;7.124;2023-04-08T08:37:00;47.45;;;24.20;;
46701;SDS011;33449;50.712;7.124;2023-04-08T08:39:27;50.60;;;26.33;;
46701;SDS011;33449;50.712;7.124;2023-04-08T08:41:55;49.60;;;24.45;;
46701;SDS011;33449;50.712;7.124;2023-04-08T08:44:23;47.40;;;26.23;;
46701;SDS011;33449;50.712;7.124;2023-04-08T08:46:51;47.35;;;24.17;;
46701;SDS011;33449;50.712;7.124;2023-04-08T08:49:18;50.47;;;26.23;;
46701;SDS011;33449;50.712;7.124;2023-04-08T08:51:46;50.55;;;26.60;;
46701;SDS011;33449;50.712;7.124;2023-04-08T08:54:14;51.40;;;26.48;;
46701;SDS011;33449;50.712;7.124;2023-04-08T08:56:42;47.40;;;25.48;;
46701;SDS011;33449;50.712;7.124;2023-04-08T08:59:09;53.75;;;25.00;;
46701;SDS011;33449;50.712;7.124;2023-04-08T09:01:39;52.33;;;25.60;;
46701;SDS011;33449;50.712;7.124;2023-04-08T09:04:14;58.45;;;27.02;;
46701;SDS011;33449;50.712;7.124;2023-04-08T09:06:48;48.53;;;25.35;;
46701;SDS011;33449;50.712;7.124;2023-04-08T09:09:20;48.33;;;25.58;;
46701;SDS011;33449;50.712;7.124;2023-04-08T09:11:47;52.63;;;26.38;;
46701;SDS011;33449;50.712;7.124;2023-04-08T09:14:21;46.83;;;24.92;;
46701;SDS011;33449;50.712;7.124;2023-04-08T09:16:49;49.55;;;25.45;;
46701;SDS011;33449;50.712;7.124;2023-04-08T09:19:17;49.40;;;26.17;;
46701;SDS011;33449;50.712;7.124;2023-04-08T09:21:44;48.47;;;24.70;;
46701;SDS011;33449;50.712;7.124;2023-04-08T09:24:34;51.80;;;26.48;;
46701;SDS011;33449;50.712;7.124;2023-04-08T09:27:00;50.45;;;26.10;;
46701;SDS011;33449;50.712;7.124;2023-04-08T09:29:28;51.58;;;27.25;;
46701;SDS011;33449;50.712;7.124;2023-04-08T09:31:59;42.58;;;23.48;;
46701;SDS011;33449;50.712;7.124;2023-04-08T09:34:27;42.92;;;25.08;;
46701;SDS011;33449;50.712;7.124;2023-04-08T09:36:57;46.60;;;22.38;;
46701;SDS011;33449;50.712;7.124;2023-04-08T09:39:25;50.50;;;25.70;;
46701;SDS011;33449;50.712;7.124;2023-04-08T09:41:52;44.88;;;24.63;;
46701;SDS011;33449;50.712;7.124;2023-04-08T09:44:35;49.45;;;25.75;;
46701;SDS011;33449;50.712;7.124;2023-04-08T09:47:17;46.80;;;26.85;;
46701;SDS011;33449;50.712;7.124;2023-04-08T09:49:49;48.47;;;25.30;;
46701;SDS011;33449;50.712;7.124;2023-04-08T09:52:22;46.35;;;25.95;;
46701;SDS011;33449;50.712;7.124;2023-04-08T09:55:00;43.20;;;24.25;;
46701;SDS011;33449;50.712;7.124;2023-04-08T09:57:43;46.35;;;24.10;;
46701;SDS011;33449;50.712;7.124;2023-04-08T10:00:15;43.85;;;25.52;;
46701;SDS011;33449;50.712;7.124;2023-04-08T10:02:58;44.67;;;24.35;;
46701;SDS011;33449;50.712;7.124;2023-04-08T10:08:05;46.70;;;23.58;;
46701;SDS011;33449;50.712;7.124;2023-04-08T10:10:38;44.95;;;24.42;;
46701;SDS011;33449;50.712;7.124;2023-04-08T10:13:06;44.63;;;24.45;;
46701;SDS011;33449;50.712;7.124;2023-04-08T10:15:36;38.83;;;21.73;;
46701;SDS011;33449;50.712;7.124;2023-04-08T10:23:03;50.45;;;26.88;;
46701;SDS011;33449;50.712;7.124;2023-04-08T10:30:48;45.63;;;24.23;;
46701;SDS011;33449;50.712;7.124;2023-04-08T10:33:17;48.28;;;25.67;;
46701;SDS011;33449;50.712;7.124;2023-04-08T10:35:48;44.97;;;22.85;;
46701;SDS011;33449;50.712;7.124;2023-04-08T10:38:16;43.80;;;24.23;;
46701;SDS011;33449;50.712;7.124;2023-04-08T10:40:43;44.35;;;24.48;;
46701;SDS011;33449;50.712;7.124;2023-04-08T10:43:12;45.25;;;24.77;;
46701;SDS011;33449;50.712;7.124;2023-04-08T10:45:40;50.75;;;25.30;;
46701;SDS011;33449;50.712;7.124;2023-04-08T10:48:11;44.63;;;23.95;;
46701;SDS011;33449;50.712;7.124;2023-04-08T10:50:39;46.30;;;25.77;;
46701;SDS011;33449;50.712;7.124;2023-04-08T10:53:07;39.97;;;24.73;;
46701;SDS011;33449;50.712;7.124;2023-04-08T10:55:35;34.95;;;20.08;;
46701;SDS011;33449;50.712;7.124;2023-04-08T10:58:06;38.13;;;20.25;;
46701;SDS011;33449;50.712;7.124;2023-04-08T11:00:35;36.65;;;21.08;;
46701;SDS011;33449;50.712;7.124;2023-04-08T11:03:03;40.58;;;21.95;;
46701;SDS011;33449;50.712;7.124;2023-04-08T11:05:32;43.20;;;21.67;;
46701;SDS011;33449;50.712;7.124;2023-04-08T11:08:00;38.42;;;22.15;;
46701;SDS011;33449;50.712;7.124;2023-04-08T11:10:27;47.92;;;22.55;;
46701;SDS011;33449;50.712;7.124;2023-04-08T11:12:55;44.85;;;24.00;;
46701;SDS011;33449;50.712;7.124;2023-04-08T11:15:29;40.92;;;22.85;;
46701;SDS011;33449;50.712;7.124;2023-04-08T11:17:56;44.40;;;22.17;;
46701;SDS011;33449;50.712;7.124;2023-04-08T11:20:23;40.97;;;22.00;;
46701;SDS011;33449;50.712;7.124;2023-04-08T11:22:51;50.33;;;23.55;;
46701;SDS011;33449;50.712;7.124;2023-04-08T11:25:18;47.20;;;24.83;;
46701;SDS011;33449;50.712;7.124;2023-04-08T11:27:46;47.33;;;23.17;;
46701;SDS011;33449;50.712;7.124;2023-04-08T11:30:15;49.00;;;24.20;;
46701;SDS011;33449;50.712;7.124;2023-04-08T11:32:43;48.60;;;23.83;;
46701;SDS011;33449;50.712;7.124;2023-04-08T11:35:11;48.95;;;24.33;;
46701;SDS011;33449;50.712;7.124;2023-04-08T11:37:39;52.35;;;24.85;;
46701;SDS011;33449;50.712;7.124;2023-04-08T11:40:10;46.75;;;22.17;;
46701;SDS011;33449;50.712;7.124;2023-04-08T11:42:40;51.15;;;23.83;;
46701;SDS011;33449;50.712;7.124;2023-04-08T11:45:12;51.05;;;24.80;;
46701;SDS011;33449;50.712;7.124;2023-04-08T11:47:40;47.78;;;23.73;;
46701;SDS011;33449;50.712;7.124;2023-04-08T11:50:09;56.42;;;24.67;;
46701;SDS011;33449;50.712;7.124;2023-04-08T11:52:50;54.35;;;25.83;;
46701;SDS011;33449;50.712;7.124;2023-04-08T11:55:25;49.63;;;24.90;;
46701;SDS011;33449;50.712;7.124;2023-04-08T11:57:53;56.53;;;27.08;;
46701;SDS011;33449;50.712;7.124;2023-04-08T12:00:21;51.38;;;25.75;;
46701;SDS011;33449;50.712;7.124;2023-04-08T12:02:50;56.63;;;28.07;;
46701;SDS011;33449;50.712;7.124;2023-04-08T12:05:18;55.85;;;27.15;;
46701;SDS011;33449;50.712;7.124;2023-04-08T12:07:46;57.85;;;27.83;;
46701;SDS011;33449;50.712;7.124;2023-04-08T12:10:14;59.58;;;30.23;;
46701;SDS011;33449;50.712;7.124;2023-04-08T12:12:41;59.00;;;27.55;;
46701;SDS011;33449;50.712;7.124;2023-04-08T12:15:08;64.93;;;29.65;;
46701;SDS011;33449;50.712;7.124;2023-04-08T12:17:36;64.72;;;30.08;;
46701;SDS011;33449;50.712;7.124;2023-04-08T12:20:04;63.88;;;28.70;;
46701;SDS011;33449;50.712;7.124;2023-04-08T12:22:32;69.45;;;31.85;;
46701;SDS011;33449;50.712;7.124;2023-04-08T12:24:59;70.78;;;31.55;;
46701;SDS011;33449;50.712;7.124;2023-04-08T12:27:29;63.30;;;28.42;;
46701;SDS011;33449;50.712;7.124;2023-04-08T12:30:01;65.13;;;31.15;;
46701;SDS011;33449;50.712;7.124;2023-04-08T12:32:28;58.20;;;28.73;;
46701;SDS011;33449;50.712;7.124;2023-04-08T12:34:57;68.53;;;28.83;;
46701;SDS011;33449;50.712;7.124;2023-04-08T12:37:26;68.65;;;28.77;;
46701;SDS011;33449;50.712;7.124;2023-04-08T12:39:53;57.60;;;27.02;;
46701;SDS011;33449;50.712;7.124;2023-04-08T12:42:24;66.93;;;29.95;;
46701;SDS011;33449;50.712;7.124;2023-04-08T12:44:52;57.70;;;28.48;;
46701;SDS011;33449;50.712;7.124;2023-04-08T12:47:19;63.20;;;27.33;;
46701;SDS011;33449;50.712;7.124;2023-04-08T12:49:51;59.72;;;27.13;;
46701;SDS011;33449;50.712;7.124;2023-04-08T12:52:18;58.38;;;27.52;;
46701;SDS011;33449;50.712;7.124;2023-04-08T12:54:46;56.47;;;27.58;;
46701;SDS011;33449;50.712;7.124;2023-04-08T12:57:13;59.25;;;27.35;;
46701;SDS011;33449;50.712;7.124;2023-04-08T12:59:44;58.80;;;26.42;;
46701;SDS011;33449;50.712;7.124;2023-04-08T13:02:11;53.05;;;25.35;;
46701;SDS011;33449;50.712;7.124;2023-04-08T13:04:39;45.05;;;22.63;;
46701;SDS011;33449;50.712;7.124;2023-04-08T13:07:08;52.47;;;24.33;;
46701;SDS011;33449;50.712;7.124;2023-04-08T13:09:35;55.88;;;26.17;;
46701;SDS011;33449;50.712;7.124;2023-04-08T13:12:03;56.85;;;26.90;;
46701;SDS011;33449;50.712;7.124;2023-04-08T13:14:31;52.22;;;24.35;;
46701;SDS011;33449;50.712;7.124;2023-04-08T13:16:58;45.78;;;22.73;;
46701;SDS011;33449;50.712;7.124;2023-04-08T13:19:25;47.65;;;23.70;;
46701;SDS011;33449;50.712;7.124;2023-04-08T13:21:52;47.28;;;23.30;;
46701;SDS011;33449;50.712;7.124;2023-04-08T13:24:20;47.80;;;24.27;;
46701;SDS011;33449;50.712;7.124;2023-04-08T13:26:48;47.55;;;23.80;;
46701;SDS011;33449;50.712;7.124;2023-04-08T13:29:15;46.20;;;22.48;;
46701;SDS011;33449;50.712;7.124;2023-04-08T13:31:42;43.70;;;21.83;;
46701;SDS011;33449;50.712;7.124;2023-04-08T13:34:10;38.47;;;19.38;;
46701;SDS011;33449;50.712;7.124;2023-04-08T13:36:41;34.65;;;18.90;;
46701;SDS011;33449;50.712;7.124;2023-04-08T13:39:08;32.65;;;19.00;;
46701;SDS011;33449;50.712;7.124;2023-04-08T13:41:36;37.45;;;18.38;;
46701;SDS011;33449;50.712;7.124;2023-04-08T13:44:03;35.55;;;18.63;;
46701;SDS011;33449;50.712;7.124;2023-04-08T13:46:30;34.88;;;17.13;;
46701;SDS011;33449;50.712;7.124;2023-04-08T13:48:58;34.13;;;17.90;;
46701;SDS011;33449;50.712;7.124;2023-04-08T13:51:25;33.28;;;17.25;;
46701;SDS011;33449;50.712;7.124;2023-04-08T13:53:54;32.70;;;16.40;;
46701;SDS011;33449;50.712;7.124;2023-04-08T13:56:22;34.05;;;16.50;;
46701;SDS011;33449;50.712;7.124;2023-04-08T13:58:49;33.10;;;18.33;;
46701;SDS011;33449;50.712;7.124;2023-04-08T14:01:22;32.60;;;17.20;;
46701;SDS011;33449;50.712;7.124;2023-04-08T14:03:50;34.53;;;17.40;;
46701;SDS011;33449;50.712;7.124;2023-04-08T14:06:17;32.38;;;18.13;;
46701;SDS011;33449;50.712;7.124;2023-04-08T14:08:45;38.47;;;17.70;;
46701;SDS011;33449;50.712;7.124;2023-04-08T14:11:12;32.67;;;17.77;;
46701;SDS011;33449;50.712;7.124;2023-04-08T14:13:40;39.17;;;21.20;;
46701;SDS011;33449;50.712;7.124;2023-04-08T14:16:07;38.28;;;20.70;;
46701;SDS011;33449;50.712;7.124;2023-04-08T14:18:39;35.97;;;19.40;;
46701;SDS011;33449;50.712;7.124;2023-04-08T14:21:14;39.92;;;19.42;;
46701;SDS011;33449;50.712;7.124;2023-04-08T14:23:44;37.77;;;20.67;;
46701;SDS011;33449;50.712;7.124;2023-04-08T14:26:12;35.45;;;18.40;;
46701;SDS011;33449;50.712;7.124;2023-04-08T14:28:39;37.67;;;19.73;;
46701;SDS011;33449;50.712;7.124;2023-04-08T14:31:09;45.75;;;22.30;;
46701;SDS011;33449;50.712;7.124;2023-04-08T14:33:41;42.67;;;21.98;;
46701;SDS011;33449;50.712;7.124;2023-04-08T14:36:11;36.40;;;20.07;;
46701;SDS011;33449;50.712;7.124;2023-04-08T14:38:40;38.72;;;19.58;;
46701;SDS011;33449;50.712;7.124;2023-04-08T14:41:08;39.08;;;18.92;;
46701;SDS011;33449;50.712;7.124;2023-04-08T14:43:35;38.83;;;20.67;;
46701;SDS011;33449;50.712;7.124;2023-04-08T14:46:02;38.60;;;20.02;;
46701;SDS011;33449;50.712;7.124;2023-04-08T14:48:30;38.65;;;19.10;;
46701;SDS011;33449;50.712;7.124;2023-04-08T14:50:57;37.15;;;19.65;;
46701;SDS011;33449;50.712;7.124;2023-04-08T14:53:26;36.40;;;20.95;;
46701;SDS011;33449;50.712;7.124;2023-04-08T14:55:54;37.10;;;19.88;;
46701;SDS011;33449;50.712;7.124;2023-04-08T14:58:22;36.25;;;19.95;;
46701;SDS011;33449;50.712;7.124;2023-04-08T15:00:50;37.55;;;19.05;;
46701;SDS011;33449;50.712;7.124;2023-04-08T15:03:31;35.03;;;19.15;;
46701;SDS011;33449;50.712;7.124;2023-04-08T15:05:59;33.58;;;19.50;;
46701;SDS011;33449;50.712;7.124;2023-04-08T15:08:27;38.40;;;18.45;;
46701;SDS011;33449;50.712;7.124;2023-04-08T15:10:55;34.75;;;18.58;;
46701;SDS011;33449;50.712;7.124;2023-04-08T15:13:24;33.72;;;18.38;;
46701;SDS011;33449;50.712;7.124;2023-04-08T15:15:52;32.90;;;17.33;;
46701;SDS011;33449;50.712;7.124;2023-04-08T15:18:33;31.73;;;16.15;;
46701;SDS011;33449;50.712;7.124;2023-04-08T15:21:02;33.40;;;16.63;;
46701;SDS011;33449;50.712;7.124;2023-04-08T15:23:31;37.30;;;19.42;;
46701;SDS011;33449;50.712;7.124;2023-04-08T15:25:58;28.10;;;16.33;;
46701;SDS011;33449;50.712;7.124;2023-04-08T15:28:27;30.65;;;17.70;;
46701;SDS011;33449;50.712;7.124;2023-04-08T15:30:54;28.65;;;15.73;;
46701;SDS011;33449;50.712;7.124;2023-04-08T15:33:35;28.13;;;14.63;;
46701;SDS011;33449;50.712;7.124;2023-04-08T15:36:12;30.38;;;16.10;;
46701;SDS011;33449;50.712;7.124;2023-04-08T15:38:48;29.98;;;16.17;;
46701;SDS011;33449;50.712;7.124;2023-04-08T15:41:27;28.67;;;15.50;;
46701;SDS011;33449;50.712;7.124;2023-04-08T15:43:58;24.95;;;14.80;;
46701;SDS011;33449;50.712;7.124;2023-04-08T15:46:30;27.42;;;14.20;;